sensor_id;sensor_type;location;lat;lon;timestamp;P1;durP1;ratioP1;P2;durP2;ratioP2
84897;SDS011;75162;42.120;21.734;2023-12-29T00:01:56;129.25;;;68.03;;
84897;SDS011;75162;42.120;21.734;2023-12-29T00:04:24;123.90;;;66.72;;
84897;SDS011;75162;42.120;21.734;2023-12-29T00:06:50;123.47;;;67.68;;
84897;SDS011;75162;42.120;21.734;2023-12-29T00:09:16;127.32;;;69.43;;
84897;SDS011;75162;42.120;21.734;2023-12-29T00:11:46;145.00;;;76.55;;
84897;SDS011;75162;42.120;21.734;2023-12-29T00:14:12;165.55;;;87.55;;
84897;SDS011;75162;42.120;21.734;2023-12-29T00:16:38;176.63;;;90.30;;
84897;SDS011;75162;42.120;21.734;2023-12-29T00:19:04;165.23;;;85.57;;
84897;SDS011;75162;42.120;21.734;2023-12-29T00:21:30;170.98;;;99.30;;
84897;SDS011;75162;42.120;21.734;2023-12-29T00:23:56;160.20;;;85.38;;
84897;SDS011;75162;42.120;21.734;2023-12-29T00:26:22;153.55;;;83.20;;
84897;SDS011;75162;42.120;21.734;2023-12-29T00:28:48;155.40;;;83.43;;
84897;SDS011;75162;42.120;21.734;2023-12-29T00:31:15;151.18;;;83.75;;
84897;SDS011;75162;42.120;21.734;2023-12-29T00:33:41;154.85;;;79.45;;
84897;SDS011;75162;42.120;21.734;2023-12-29T00:36:07;150.30;;;77.82;;
84897;SDS011;75162;42.120;21.734;2023-12-29T00:38:33;138.02;;;72.32;;
84897;SDS011;75162;42.120;21.734;2023-12-29T00:41:00;150.85;;;76.93;;
84897;SDS011;75162;42.120;21.734;2023-12-29T00:43:26;146.05;;;78.57;;
84897;SDS011;75162;42.120;21.734;2023-12-29T00:45:52;149.02;;;77.65;;
84897;SDS011;75162;42.120;21.734;2023-12-29T00:48:18;158.88;;;82.60;;
84897;SDS011;75162;42.120;21.734;2023-12-29T00:50:44;144.57;;;75.43;;
84897;SDS011;75162;42.120;21.734;2023-12-29T00:53:10;151.30;;;81.38;;
84897;SDS011;75162;42.120;21.734;2023-12-29T00:55:36;146.95;;;78.05;;
84897;SDS011;75162;42.120;21.734;2023-12-29T00:58:02;149.38;;;78.43;;
84897;SDS011;75162;42.120;21.734;2023-12-29T01:00:29;151.65;;;77.85;;
84897;SDS011;75162;42.120;21.734;2023-12-29T01:02:55;148.43;;;81.45;;
84897;SDS011;75162;42.120;21.734;2023-12-29T01:05:21;150.45;;;80.63;;
84897;SDS011;75162;42.120;21.734;2023-12-29T01:07:47;159.35;;;84.40;;
84897;SDS011;75162;42.120;21.734;2023-12-29T01:10:13;151.57;;;80.55;;
84897;SDS011;75162;42.120;21.734;2023-12-29T01:12:39;147.38;;;79.65;;
84897;SDS011;75162;42.120;21.734;2023-12-29T01:15:06;159.93;;;84.75;;
84897;SDS011;75162;42.120;21.734;2023-12-29T01:17:32;153.50;;;84.80;;
84897;SDS011;75162;42.120;21.734;2023-12-29T01:19:58;146.25;;;82.07;;
84897;SDS011;75162;42.120;21.734;2023-12-29T01:22:24;156.10;;;81.57;;
84897;SDS011;75162;42.120;21.734;2023-12-29T01:24:50;138.98;;;79.65;;
84897;SDS011;75162;42.120;21.734;2023-12-29T01:27:16;151.95;;;82.68;;
84897;SDS011;75162;42.120;21.734;2023-12-29T01:29:42;149.15;;;79.28;;
84897;SDS011;75162;42.120;21.734;2023-12-29T01:32:08;148.20;;;78.72;;
84897;SDS011;75162;42.120;21.734;2023-12-29T01:34:35;142.82;;;75.90;;
84897;SDS011;75162;42.120;21.734;2023-12-29T01:37:02;138.23;;;75.38;;
84897;SDS011;75162;42.120;21.734;2023-12-29T01:39:29;143.07;;;74.18;;
84897;SDS011;75162;42.120;21.734;2023-12-29T01:41:55;146.25;;;77.95;;
84897;SDS011;75162;42.120;21.734;2023-12-29T01:44:22;139.07;;;75.60;;
84897;SDS011;75162;42.120;21.734;2023-12-29T01:46:53;145.23;;;75.85;;
84897;SDS011;75162;42.120;21.734;2023-12-29T01:49:20;139.52;;;74.63;;
84897;SDS011;75162;42.120;21.734;2023-12-29T01:51:50;128.95;;;72.00;;
84897;SDS011;75162;42.120;21.734;2023-12-29T01:54:17;131.00;;;70.55;;
84897;SDS011;75162;42.120;21.734;2023-12-29T01:56:44;105.95;;;58.67;;
84897;SDS011;75162;42.120;21.734;2023-12-29T01:59:11;110.32;;;58.80;;
84897;SDS011;75162;42.120;21.734;2023-12-29T02:01:37;109.68;;;56.20;;
84897;SDS011;75162;42.120;21.734;2023-12-29T02:04:07;102.40;;;54.88;;
84897;SDS011;75162;42.120;21.734;2023-12-29T02:06:36;100.88;;;52.20;;
84897;SDS011;75162;42.120;21.734;2023-12-29T02:09:03;98.95;;;52.00;;
84897;SDS011;75162;42.120;21.734;2023-12-29T02:11:30;99.78;;;55.53;;
84897;SDS011;75162;42.120;21.734;2023-12-29T02:13:56;106.93;;;56.95;;
84897;SDS011;75162;42.120;21.734;2023-12-29T02:16:26;106.95;;;55.63;;
84897;SDS011;75162;42.120;21.734;2023-12-29T02:18:56;98.80;;;51.67;;
84897;SDS011;75162;42.120;21.734;2023-12-29T02:21:26;97.60;;;54.72;;
84897;SDS011;75162;42.120;21.734;2023-12-29T02:23:52;92.00;;;48.90;;
84897;SDS011;75162;42.120;21.734;2023-12-29T02:26:19;86.35;;;44.13;;
84897;SDS011;75162;42.120;21.734;2023-12-29T02:28:48;83.53;;;44.47;;
84897;SDS011;75162;42.120;21.734;2023-12-29T02:31:19;82.35;;;45.58;;
84897;SDS011;75162;42.120;21.734;2023-12-29T02:33:46;79.43;;;44.13;;
84897;SDS011;75162;42.120;21.734;2023-12-29T02:36:13;80.38;;;45.83;;
84897;SDS011;75162;42.120;21.734;2023-12-29T02:38:40;84.65;;;46.50;;
84897;SDS011;75162;42.120;21.734;2023-12-29T02:41:06;85.18;;;43.55;;
84897;SDS011;75162;42.120;21.734;2023-12-29T02:43:32;75.93;;;42.65;;
84897;SDS011;75162;42.120;21.734;2023-12-29T02:45:58;62.03;;;35.35;;
84897;SDS011;75162;42.120;21.734;2023-12-29T02:48:25;60.03;;;36.22;;
84897;SDS011;75162;42.120;21.734;2023-12-29T02:50:51;63.97;;;36.70;;
84897;SDS011;75162;42.120;21.734;2023-12-29T02:53:17;67.13;;;38.63;;
84897;SDS011;75162;42.120;21.734;2023-12-29T02:55:43;71.53;;;40.20;;
84897;SDS011;75162;42.120;21.734;2023-12-29T02:58:09;73.60;;;42.08;;
84897;SDS011;75162;42.120;21.734;2023-12-29T03:00:35;63.13;;;36.72;;
84897;SDS011;75162;42.120;21.734;2023-12-29T03:03:01;60.95;;;37.00;;
84897;SDS011;75162;42.120;21.734;2023-12-29T03:05:27;59.10;;;36.45;;
84897;SDS011;75162;42.120;21.734;2023-12-29T03:07:53;67.72;;;38.10;;
84897;SDS011;75162;42.120;21.734;2023-12-29T03:10:19;68.28;;;36.90;;
84897;SDS011;75162;42.120;21.734;2023-12-29T03:12:45;60.05;;;35.50;;
84897;SDS011;75162;42.120;21.734;2023-12-29T03:15:12;59.67;;;33.78;;
84897;SDS011;75162;42.120;21.734;2023-12-29T03:17:38;51.53;;;31.98;;
84897;SDS011;75162;42.120;21.734;2023-12-29T03:20:04;56.78;;;33.38;;
84897;SDS011;75162;42.120;21.734;2023-12-29T03:22:30;63.40;;;35.80;;
84897;SDS011;75162;42.120;21.734;2023-12-29T03:24:57;73.35;;;40.33;;
84897;SDS011;75162;42.120;21.734;2023-12-29T03:27:23;72.75;;;37.45;;
84897;SDS011;75162;42.120;21.734;2023-12-29T03:29:49;62.33;;;33.53;;
84897;SDS011;75162;42.120;21.734;2023-12-29T03:32:15;73.60;;;37.90;;
84897;SDS011;75162;42.120;21.734;2023-12-29T03:34:42;66.05;;;33.97;;
84897;SDS011;75162;42.120;21.734;2023-12-29T03:37:08;64.10;;;32.90;;
84897;SDS011;75162;42.120;21.734;2023-12-29T03:39:34;62.05;;;33.70;;
84897;SDS011;75162;42.120;21.734;2023-12-29T03:42:01;70.85;;;37.33;;
84897;SDS011;75162;42.120;21.734;2023-12-29T03:44:27;67.93;;;34.85;;
84897;SDS011;75162;42.120;21.734;2023-12-29T03:46:53;74.55;;;36.88;;
84897;SDS011;75162;42.120;21.734;2023-12-29T03:49:19;108.38;;;46.15;;
84897;SDS011;75162;42.120;21.734;2023-12-29T03:51:45;89.10;;;39.20;;
84897;SDS011;75162;42.120;21.734;2023-12-29T03:54:11;88.55;;;40.17;;
84897;SDS011;75162;42.120;21.734;2023-12-29T03:56:38;68.35;;;36.85;;
84897;SDS011;75162;42.120;21.734;2023-12-29T03:59:04;66.00;;;33.08;;
84897;SDS011;75162;42.120;21.734;2023-12-29T04:01:32;66.22;;;32.95;;
84897;SDS011;75162;42.120;21.734;2023-12-29T04:03:59;70.10;;;35.42;;
84897;SDS011;75162;42.120;21.734;2023-12-29T04:06:25;69.60;;;33.97;;
84897;SDS011;75162;42.120;21.734;2023-12-29T04:08:51;73.00;;;36.85;;
84897;SDS011;75162;42.120;21.734;2023-12-29T04:11:18;87.55;;;41.72;;
84897;SDS011;75162;42.120;21.734;2023-12-29T04:13:44;92.63;;;41.50;;
84897;SDS011;75162;42.120;21.734;2023-12-29T04:16:10;87.63;;;37.15;;
84897;SDS011;75162;42.120;21.734;2023-12-29T04:18:36;84.75;;;41.70;;
84897;SDS011;75162;42.120;21.734;2023-12-29T04:21:02;71.63;;;37.72;;
84897;SDS011;75162;42.120;21.734;2023-12-29T04:23:28;67.70;;;38.53;;
84897;SDS011;75162;42.120;21.734;2023-12-29T04:25:54;72.15;;;36.33;;
84897;SDS011;75162;42.120;21.734;2023-12-29T04:28:20;64.00;;;34.25;;
84897;SDS011;75162;42.120;21.734;2023-12-29T04:30:46;54.80;;;29.98;;
84897;SDS011;75162;42.120;21.734;2023-12-29T04:33:13;52.63;;;28.33;;
84897;SDS011;75162;42.120;21.734;2023-12-29T04:35:39;43.92;;;24.73;;
84897;SDS011;75162;42.120;21.734;2023-12-29T04:38:05;50.50;;;26.30;;
84897;SDS011;75162;42.120;21.734;2023-12-29T04:40:31;37.65;;;22.77;;
84897;SDS011;75162;42.120;21.734;2023-12-29T04:42:57;58.75;;;23.85;;
84897;SDS011;75162;42.120;21.734;2023-12-29T04:45:24;49.75;;;24.60;;
84897;SDS011;75162;42.120;21.734;2023-12-29T04:47:50;63.35;;;25.08;;
84897;SDS011;75162;42.120;21.734;2023-12-29T04:50:16;59.38;;;24.25;;
84897;SDS011;75162;42.120;21.734;2023-12-29T04:52:42;74.43;;;24.75;;
84897;SDS011;75162;42.120;21.734;2023-12-29T04:55:08;103.25;;;29.77;;
84897;SDS011;75162;42.120;21.734;2023-12-29T04:57:34;101.28;;;32.22;;
84897;SDS011;75162;42.120;21.734;2023-12-29T05:00:00;88.47;;;29.58;;
84897;SDS011;75162;42.120;21.734;2023-12-29T05:02:26;70.13;;;27.00;;
84897;SDS011;75162;42.120;21.734;2023-12-29T05:04:52;79.80;;;27.55;;
84897;SDS011;75162;42.120;21.734;2023-12-29T05:07:18;60.85;;;25.90;;
84897;SDS011;75162;42.120;21.734;2023-12-29T05:09:44;65.90;;;27.15;;
84897;SDS011;75162;42.120;21.734;2023-12-29T05:12:10;64.85;;;29.40;;
84897;SDS011;75162;42.120;21.734;2023-12-29T05:14:37;47.25;;;24.92;;
84897;SDS011;75162;42.120;21.734;2023-12-29T05:17:03;45.72;;;25.75;;
84897;SDS011;75162;42.120;21.734;2023-12-29T05:19:29;44.15;;;23.98;;
84897;SDS011;75162;42.120;21.734;2023-12-29T05:21:55;78.43;;;31.52;;
84897;SDS011;75162;42.120;21.734;2023-12-29T05:24:21;77.25;;;31.67;;
84897;SDS011;75162;42.120;21.734;2023-12-29T05:26:47;88.72;;;34.42;;
84897;SDS011;75162;42.120;21.734;2023-12-29T05:29:13;86.10;;;31.33;;
84897;SDS011;75162;42.120;21.734;2023-12-29T05:31:39;60.25;;;31.05;;
84897;SDS011;75162;42.120;21.734;2023-12-29T05:34:05;47.78;;;26.08;;
84897;SDS011;75162;42.120;21.734;2023-12-29T05:36:34;39.88;;;24.27;;
84897;SDS011;75162;42.120;21.734;2023-12-29T05:39:02;47.53;;;25.00;;
84897;SDS011;75162;42.120;21.734;2023-12-29T05:41:31;47.30;;;26.35;;
84897;SDS011;75162;42.120;21.734;2023-12-29T05:43:58;38.92;;;24.15;;
84897;SDS011;75162;42.120;21.734;2023-12-29T05:46:25;45.20;;;24.63;;
84897;SDS011;75162;42.120;21.734;2023-12-29T05:48:51;45.97;;;26.25;;
84897;SDS011;75162;42.120;21.734;2023-12-29T05:51:18;48.53;;;27.00;;
84897;SDS011;75162;42.120;21.734;2023-12-29T05:53:45;57.13;;;25.83;;
84897;SDS011;75162;42.120;21.734;2023-12-29T05:56:12;44.45;;;25.88;;
84897;SDS011;75162;42.120;21.734;2023-12-29T05:58:39;52.33;;;27.38;;
84897;SDS011;75162;42.120;21.734;2023-12-29T06:01:06;57.15;;;27.58;;
84897;SDS011;75162;42.120;21.734;2023-12-29T06:03:32;63.28;;;26.92;;
84897;SDS011;75162;42.120;21.734;2023-12-29T06:05:59;68.60;;;30.27;;
84897;SDS011;75162;42.120;21.734;2023-12-29T06:08:25;64.65;;;28.60;;
84897;SDS011;75162;42.120;21.734;2023-12-29T06:10:51;67.75;;;29.15;;
84897;SDS011;75162;42.120;21.734;2023-12-29T06:13:17;59.85;;;31.02;;
84897;SDS011;75162;42.120;21.734;2023-12-29T06:15:43;84.03;;;32.33;;
84897;SDS011;75162;42.120;21.734;2023-12-29T06:18:09;83.32;;;33.75;;
84897;SDS011;75162;42.120;21.734;2023-12-29T06:20:35;96.80;;;39.58;;
84897;SDS011;75162;42.120;21.734;2023-12-29T06:23:02;92.13;;;40.00;;
84897;SDS011;75162;42.120;21.734;2023-12-29T06:25:28;94.07;;;41.63;;
84897;SDS011;75162;42.120;21.734;2023-12-29T06:27:54;90.65;;;33.65;;
84897;SDS011;75162;42.120;21.734;2023-12-29T06:30:20;86.00;;;33.17;;
84897;SDS011;75162;42.120;21.734;2023-12-29T06:32:46;84.55;;;35.83;;
84897;SDS011;75162;42.120;21.734;2023-12-29T06:35:12;102.97;;;41.17;;
84897;SDS011;75162;42.120;21.734;2023-12-29T06:37:39;120.30;;;44.05;;
84897;SDS011;75162;42.120;21.734;2023-12-29T06:40:05;95.97;;;45.33;;
84897;SDS011;75162;42.120;21.734;2023-12-29T06:42:32;114.63;;;44.50;;
84897;SDS011;75162;42.120;21.734;2023-12-29T06:44:58;126.35;;;47.28;;
84897;SDS011;75162;42.120;21.734;2023-12-29T06:47:24;102.13;;;41.50;;
84897;SDS011;75162;42.120;21.734;2023-12-29T06:49:50;111.93;;;42.50;;
84897;SDS011;75162;42.120;21.734;2023-12-29T06:52:16;89.25;;;38.78;;
84897;SDS011;75162;42.120;21.734;2023-12-29T06:54:42;185.95;;;63.35;;
84897;SDS011;75162;42.120;21.734;2023-12-29T06:57:09;107.85;;;40.35;;
84897;SDS011;75162;42.120;21.734;2023-12-29T06:59:35;88.53;;;35.22;;
84897;SDS011;75162;42.120;21.734;2023-12-29T07:02:01;147.93;;;36.60;;
84897;SDS011;75162;42.120;21.734;2023-12-29T07:04:27;142.82;;;39.40;;
84897;SDS011;75162;42.120;21.734;2023-12-29T07:06:53;87.28;;;34.35;;
84897;SDS011;75162;42.120;21.734;2023-12-29T07:09:19;103.97;;;35.67;;
84897;SDS011;75162;42.120;21.734;2023-12-29T07:11:48;84.57;;;31.13;;
84897;SDS011;75162;42.120;21.734;2023-12-29T07:14:15;82.15;;;29.60;;
84897;SDS011;75162;42.120;21.734;2023-12-29T07:16:42;90.15;;;31.02;;
84897;SDS011;75162;42.120;21.734;2023-12-29T07:19:08;93.88;;;31.77;;
84897;SDS011;75162;42.120;21.734;2023-12-29T07:21:34;170.45;;;40.15;;
84897;SDS011;75162;42.120;21.734;2023-12-29T07:24:00;140.00;;;33.45;;
84897;SDS011;75162;42.120;21.734;2023-12-29T07:26:26;144.93;;;33.28;;
84897;SDS011;75162;42.120;21.734;2023-12-29T07:28:52;90.53;;;31.42;;
84897;SDS011;75162;42.120;21.734;2023-12-29T07:31:22;110.35;;;32.97;;
84897;SDS011;75162;42.120;21.734;2023-12-29T07:33:49;120.63;;;32.15;;
84897;SDS011;75162;42.120;21.734;2023-12-29T07:36:15;125.03;;;37.58;;
84897;SDS011;75162;42.120;21.734;2023-12-29T07:38:41;98.47;;;35.80;;
84897;SDS011;75162;42.120;21.734;2023-12-29T07:41:08;105.47;;;36.75;;
84897;SDS011;75162;42.120;21.734;2023-12-29T07:43:34;137.15;;;35.67;;
84897;SDS011;75162;42.120;21.734;2023-12-29T07:46:03;97.78;;;35.25;;
84897;SDS011;75162;42.120;21.734;2023-12-29T07:48:29;74.40;;;30.95;;
84897;SDS011;75162;42.120;21.734;2023-12-29T07:50:55;91.10;;;33.60;;
84897;SDS011;75162;42.120;21.734;2023-12-29T07:53:24;132.85;;;48.65;;
84897;SDS011;75162;42.120;21.734;2023-12-29T07:55:50;189.75;;;53.22;;
84897;SDS011;75162;42.120;21.734;2023-12-29T07:58:18;120.95;;;47.35;;
84897;SDS011;75162;42.120;21.734;2023-12-29T08:00:44;130.38;;;50.80;;
84897;SDS011;75162;42.120;21.734;2023-12-29T08:03:11;142.70;;;58.13;;
84897;SDS011;75162;42.120;21.734;2023-12-29T08:05:37;128.63;;;53.60;;
84897;SDS011;75162;42.120;21.734;2023-12-29T08:08:04;104.32;;;47.97;;
84897;SDS011;75162;42.120;21.734;2023-12-29T08:10:30;106.38;;;46.22;;
84897;SDS011;75162;42.120;21.734;2023-12-29T08:12:57;107.72;;;47.97;;
84897;SDS011;75162;42.120;21.734;2023-12-29T08:15:23;88.72;;;41.08;;
84897;SDS011;75162;42.120;21.734;2023-12-29T08:17:49;80.05;;;36.72;;
84897;SDS011;75162;42.120;21.734;2023-12-29T08:20:15;73.78;;;35.03;;
84897;SDS011;75162;42.120;21.734;2023-12-29T08:22:41;77.45;;;36.47;;
84897;SDS011;75162;42.120;21.734;2023-12-29T08:25:08;77.50;;;38.70;;
84897;SDS011;75162;42.120;21.734;2023-12-29T08:27:34;71.03;;;35.45;;
84897;SDS011;75162;42.120;21.734;2023-12-29T08:30:00;78.10;;;34.47;;
84897;SDS011;75162;42.120;21.734;2023-12-29T08:32:27;101.85;;;48.33;;
84897;SDS011;75162;42.120;21.734;2023-12-29T08:34:53;140.27;;;53.58;;
84897;SDS011;75162;42.120;21.734;2023-12-29T08:37:19;131.65;;;52.50;;
84897;SDS011;75162;42.120;21.734;2023-12-29T08:39:48;115.07;;;48.78;;
84897;SDS011;75162;42.120;21.734;2023-12-29T08:42:14;111.13;;;47.35;;
84897;SDS011;75162;42.120;21.734;2023-12-29T08:44:40;111.07;;;46.30;;
84897;SDS011;75162;42.120;21.734;2023-12-29T08:47:06;125.55;;;52.45;;
84897;SDS011;75162;42.120;21.734;2023-12-29T08:49:34;209.32;;;70.43;;
84897;SDS011;75162;42.120;21.734;2023-12-29T08:52:00;142.75;;;62.40;;
84897;SDS011;75162;42.120;21.734;2023-12-29T08:54:26;162.68;;;65.70;;
84897;SDS011;75162;42.120;21.734;2023-12-29T08:56:53;175.65;;;72.00;;
84897;SDS011;75162;42.120;21.734;2023-12-29T08:59:19;189.75;;;71.05;;
84897;SDS011;75162;42.120;21.734;2023-12-29T09:01:45;203.35;;;84.88;;
84897;SDS011;75162;42.120;21.734;2023-12-29T09:04:12;194.27;;;78.50;;
84897;SDS011;75162;42.120;21.734;2023-12-29T09:06:38;180.90;;;77.05;;
84897;SDS011;75162;42.120;21.734;2023-12-29T09:09:04;173.32;;;73.88;;
84897;SDS011;75162;42.120;21.734;2023-12-29T09:11:30;178.30;;;86.05;;
84897;SDS011;75162;42.120;21.734;2023-12-29T09:13:56;226.13;;;86.18;;
84897;SDS011;75162;42.120;21.734;2023-12-29T09:16:22;213.13;;;88.28;;
84897;SDS011;75162;42.120;21.734;2023-12-29T09:18:49;205.25;;;85.20;;
84897;SDS011;75162;42.120;21.734;2023-12-29T09:21:15;202.52;;;84.60;;
84897;SDS011;75162;42.120;21.734;2023-12-29T09:23:41;188.93;;;79.15;;
84897;SDS011;75162;42.120;21.734;2023-12-29T09:26:07;208.52;;;92.65;;
84897;SDS011;75162;42.120;21.734;2023-12-29T09:28:33;203.98;;;96.32;;
84897;SDS011;75162;42.120;21.734;2023-12-29T09:30:59;200.13;;;93.45;;
84897;SDS011;75162;42.120;21.734;2023-12-29T09:33:25;187.88;;;95.22;;
84897;SDS011;75162;42.120;21.734;2023-12-29T09:35:51;176.10;;;82.10;;
84897;SDS011;75162;42.120;21.734;2023-12-29T09:38:18;180.23;;;88.45;;
84897;SDS011;75162;42.120;21.734;2023-12-29T09:40:45;166.45;;;83.88;;
84897;SDS011;75162;42.120;21.734;2023-12-29T09:43:12;162.50;;;79.15;;
84897;SDS011;75162;42.120;21.734;2023-12-29T09:45:38;166.45;;;84.50;;
84897;SDS011;75162;42.120;21.734;2023-12-29T09:48:07;151.77;;;83.35;;
84897;SDS011;75162;42.120;21.734;2023-12-29T09:50:34;154.90;;;83.30;;
84897;SDS011;75162;42.120;21.734;2023-12-29T09:53:02;150.55;;;80.55;;
84897;SDS011;75162;42.120;21.734;2023-12-29T09:55:28;155.82;;;82.60;;
84897;SDS011;75162;42.120;21.734;2023-12-29T09:57:55;145.00;;;81.47;;
84897;SDS011;75162;42.120;21.734;2023-12-29T10:00:21;149.48;;;79.93;;
84897;SDS011;75162;42.120;21.734;2023-12-29T10:02:48;143.68;;;79.20;;
84897;SDS011;75162;42.120;21.734;2023-12-29T10:05:18;146.88;;;83.47;;
84897;SDS011;75162;42.120;21.734;2023-12-29T10:07:47;136.02;;;74.88;;
84897;SDS011;75162;42.120;21.734;2023-12-29T10:10:14;138.25;;;75.75;;
84897;SDS011;75162;42.120;21.734;2023-12-29T10:12:41;146.20;;;79.97;;
84897;SDS011;75162;42.120;21.734;2023-12-29T10:23:10;141.32;;;80.80;;
84897;SDS011;75162;42.120;21.734;2023-12-29T10:25:41;142.05;;;76.07;;
84897;SDS011;75162;42.120;21.734;2023-12-29T10:28:09;148.23;;;82.38;;
84897;SDS011;75162;42.120;21.734;2023-12-29T10:30:35;145.48;;;82.97;;
84897;SDS011;75162;42.120;21.734;2023-12-29T10:33:02;155.27;;;85.05;;
84897;SDS011;75162;42.120;21.734;2023-12-29T10:35:30;141.60;;;79.13;;
84897;SDS011;75162;42.120;21.734;2023-12-29T10:38:09;136.63;;;80.45;;
84897;SDS011;75162;42.120;21.734;2023-12-29T10:40:36;148.07;;;83.00;;
84897;SDS011;75162;42.120;21.734;2023-12-29T10:43:02;142.05;;;86.53;;
84897;SDS011;75162;42.120;21.734;2023-12-29T10:45:32;143.80;;;81.45;;
84897;SDS011;75162;42.120;21.734;2023-12-29T10:48:01;142.13;;;82.25;;
84897;SDS011;75162;42.120;21.734;2023-12-29T10:50:27;136.27;;;76.57;;
84897;SDS011;75162;42.120;21.734;2023-12-29T10:55:42;140.43;;;78.75;;
84897;SDS011;75162;42.120;21.734;2023-12-29T10:58:08;138.32;;;78.28;;
84897;SDS011;75162;42.120;21.734;2023-12-29T11:00:35;134.77;;;76.30;;
84897;SDS011;75162;42.120;21.734;2023-12-29T11:03:01;132.95;;;83.00;;
84897;SDS011;75162;42.120;21.734;2023-12-29T11:05:27;151.88;;;84.88;;
84897;SDS011;75162;42.120;21.734;2023-12-29T11:07:54;142.05;;;79.90;;
84897;SDS011;75162;42.120;21.734;2023-12-29T11:10:21;127.65;;;74.85;;
84897;SDS011;75162;42.120;21.734;2023-12-29T11:12:48;142.50;;;84.32;;
84897;SDS011;75162;42.120;21.734;2023-12-29T11:15:14;137.25;;;81.15;;
84897;SDS011;75162;42.120;21.734;2023-12-29T11:17:41;141.77;;;83.75;;
84897;SDS011;75162;42.120;21.734;2023-12-29T11:20:14;125.85;;;70.50;;
84897;SDS011;75162;42.120;21.734;2023-12-29T11:22:41;106.05;;;60.97;;
84897;SDS011;75162;42.120;21.734;2023-12-29T11:25:08;90.88;;;51.92;;
84897;SDS011;75162;42.120;21.734;2023-12-29T11:27:34;88.57;;;47.75;;
84897;SDS011;75162;42.120;21.734;2023-12-29T11:30:02;79.65;;;46.13;;
84897;SDS011;75162;42.120;21.734;2023-12-29T11:35:17;67.43;;;39.83;;
84897;SDS011;75162;42.120;21.734;2023-12-29T11:40:16;65.63;;;40.90;;
84897;SDS011;75162;42.120;21.734;2023-12-29T11:42:43;61.50;;;37.90;;
84897;SDS011;75162;42.120;21.734;2023-12-29T11:45:23;60.70;;;37.33;;
84897;SDS011;75162;42.120;21.734;2023-12-29T11:47:50;80.75;;;45.63;;
84897;SDS011;75162;42.120;21.734;2023-12-29T11:50:26;64.15;;;37.55;;
84897;SDS011;75162;42.120;21.734;2023-12-29T11:52:53;62.50;;;36.03;;
84897;SDS011;75162;42.120;21.734;2023-12-29T11:55:19;64.20;;;38.28;;
84897;SDS011;75162;42.120;21.734;2023-12-29T11:57:45;63.08;;;36.10;;
84897;SDS011;75162;42.120;21.734;2023-12-29T12:00:11;51.42;;;32.28;;
84897;SDS011;75162;42.120;21.734;2023-12-29T12:02:38;50.70;;;31.20;;
84897;SDS011;75162;42.120;21.734;2023-12-29T12:05:04;43.00;;;26.75;;
84897;SDS011;75162;42.120;21.734;2023-12-29T12:12:43;51.03;;;31.02;;
84897;SDS011;75162;42.120;21.734;2023-12-29T12:20:25;53.80;;;32.65;;
84897;SDS011;75162;42.120;21.734;2023-12-29T12:23:03;56.00;;;35.45;;
84897;SDS011;75162;42.120;21.734;2023-12-29T12:25:30;64.15;;;37.63;;
84897;SDS011;75162;42.120;21.734;2023-12-29T12:28:05;88.68;;;48.92;;
84897;SDS011;75162;42.120;21.734;2023-12-29T12:30:32;57.88;;;35.22;;
84897;SDS011;75162;42.120;21.734;2023-12-29T12:33:02;62.72;;;34.75;;
84897;SDS011;75162;42.120;21.734;2023-12-29T12:35:29;35.67;;;20.25;;
84897;SDS011;75162;42.120;21.734;2023-12-29T12:38:08;41.42;;;26.05;;
84897;SDS011;75162;42.120;21.734;2023-12-29T12:40:35;37.50;;;23.13;;
84897;SDS011;75162;42.120;21.734;2023-12-29T12:43:02;43.33;;;25.70;;
84897;SDS011;75162;42.120;21.734;2023-12-29T12:45:28;39.58;;;23.05;;
84897;SDS011;75162;42.120;21.734;2023-12-29T12:47:58;34.83;;;23.15;;
84897;SDS011;75162;42.120;21.734;2023-12-29T12:50:25;39.70;;;22.67;;
84897;SDS011;75162;42.120;21.734;2023-12-29T12:52:52;58.28;;;31.25;;
84897;SDS011;75162;42.120;21.734;2023-12-29T12:55:18;39.63;;;23.80;;
84897;SDS011;75162;42.120;21.734;2023-12-29T12:57:45;47.67;;;26.15;;
84897;SDS011;75162;42.120;21.734;2023-12-29T13:00:11;36.00;;;22.52;;
84897;SDS011;75162;42.120;21.734;2023-12-29T13:02:37;40.70;;;24.98;;
84897;SDS011;75162;42.120;21.734;2023-12-29T13:05:11;36.08;;;22.25;;
84897;SDS011;75162;42.120;21.734;2023-12-29T13:07:39;51.28;;;29.75;;
84897;SDS011;75162;42.120;21.734;2023-12-29T13:10:05;44.33;;;23.55;;
84897;SDS011;75162;42.120;21.734;2023-12-29T13:12:32;36.30;;;22.73;;
84897;SDS011;75162;42.120;21.734;2023-12-29T13:15:04;37.35;;;21.73;;
84897;SDS011;75162;42.120;21.734;2023-12-29T13:17:33;33.92;;;20.52;;
84897;SDS011;75162;42.120;21.734;2023-12-29T13:19:59;43.05;;;26.15;;
84897;SDS011;75162;42.120;21.734;2023-12-29T13:22:25;40.83;;;22.83;;
84897;SDS011;75162;42.120;21.734;2023-12-29T13:24:54;36.47;;;22.48;;
84897;SDS011;75162;42.120;21.734;2023-12-29T13:27:21;47.75;;;25.33;;
84897;SDS011;75162;42.120;21.734;2023-12-29T13:29:47;45.45;;;25.90;;
84897;SDS011;75162;42.120;21.734;2023-12-29T13:32:18;42.58;;;26.90;;
84897;SDS011;75162;42.120;21.734;2023-12-29T13:35:32;48.08;;;26.98;;
84897;SDS011;75162;42.120;21.734;2023-12-29T13:37:46;40.67;;;26.15;;
84897;SDS011;75162;42.120;21.734;2023-12-29T13:42:43;40.70;;;26.23;;
84897;SDS011;75162;42.120;21.734;2023-12-29T13:45:14;39.95;;;23.40;;
84897;SDS011;75162;42.120;21.734;2023-12-29T13:47:45;42.15;;;25.73;;
84897;SDS011;75162;42.120;21.734;2023-12-29T13:50:11;46.30;;;26.33;;
84897;SDS011;75162;42.120;21.734;2023-12-29T13:52:38;46.25;;;27.48;;
84897;SDS011;75162;42.120;21.734;2023-12-29T13:55:04;48.53;;;26.65;;
84897;SDS011;75162;42.120;21.734;2023-12-29T13:57:34;49.55;;;28.38;;
84897;SDS011;75162;42.120;21.734;2023-12-29T14:00:16;50.45;;;30.17;;
84897;SDS011;75162;42.120;21.734;2023-12-29T14:07:54;59.17;;;35.00;;
84897;SDS011;75162;42.120;21.734;2023-12-29T14:10:22;58.28;;;35.50;;
84897;SDS011;75162;42.120;21.734;2023-12-29T14:12:48;62.47;;;36.20;;
84897;SDS011;75162;42.120;21.734;2023-12-29T14:15:15;67.25;;;40.75;;
84897;SDS011;75162;42.120;21.734;2023-12-29T14:17:41;62.67;;;35.83;;
84897;SDS011;75162;42.120;21.734;2023-12-29T14:20:07;64.00;;;33.08;;
84897;SDS011;75162;42.120;21.734;2023-12-29T14:22:34;47.03;;;27.00;;
84897;SDS011;75162;42.120;21.734;2023-12-29T14:25:06;48.10;;;29.25;;
84897;SDS011;75162;42.120;21.734;2023-12-29T14:27:35;43.50;;;27.95;;
84897;SDS011;75162;42.120;21.734;2023-12-29T14:30:04;49.67;;;29.30;;
84897;SDS011;75162;42.120;21.734;2023-12-29T14:32:43;50.47;;;30.70;;
84897;SDS011;75162;42.120;21.734;2023-12-29T14:35:09;50.47;;;29.90;;
84897;SDS011;75162;42.120;21.734;2023-12-29T14:37:40;47.50;;;28.52;;